Time,TemperatureF,DewpointF,PressureIn,WindDirection,WindDirectionDegrees,WindSpeedMPH,WindSpeedGustMPH,Humidity,HourlyPrecipIn,Conditions,Clouds,dailyrainin,SoftwareType,DateUTC
2013-04-21 00:00:00,19.3,11.1,30.46,North,0,2.0,4.0,70,0.00,,---,0.00,VWS V14.01,2013-04-21 08:00:00,
2013-04-21 00:05:00,19.3,11.1,30.46,North,0,1.0,3.0,70,0.00,,---,0.00,VWS V14.01,2013-04-21 08:05:00,
2013-04-21 00:10:00,21.6,12.7,30.46,NNW,338,1.0,4.0,68,0.00,,---,0.00,VWS V14.01,2013-04-21 08:10:00,
2013-04-21 00:15:00,21.4,12.5,30.47,NNW,338,1.0,3.0,68,0.00,,---,0.00,VWS V14.01,2013-04-21 08:15:00,
2013-04-21 00:20:00,21.2,12.3,30.47,NNW,338,1.0,4.0,68,0.00,,---,0.00,VWS V14.01,2013-04-21 08:20:00,
2013-04-21 00:25:00,21.1,12.2,30.47,NNW,338,3.0,6.0,68,0.00,,---,0.00,VWS V14.01,2013-04-21 08:25:00,
2013-04-21 00:30:00,20.9,12.0,30.47,NNW,338,3.0,6.0,68,0.00,,---,0.00,VWS V14.01,2013-04-21 08:30:00,
2013-04-21 00:35:00,20.7,11.8,30.47,NNW,338,4.0,6.0,68,0.00,,---,0.00,VWS V14.01,2013-04-21 08:35:00,
2013-04-21 00:40:00,20.3,11.4,30.47,NNW,338,3.0,5.0,68,0.00,,---,0.00,VWS V14.01,2013-04-21 08:40:00,
2013-04-21 00:45:00,20.1,11.2,30.47,NNW,338,3.0,7.0,68,0.00,,---,0.00,VWS V14.01,2013-04-21 08:45:00,
2013-04-21 00:50:00,19.8,11.0,30.47,NW,315,3.0,6.0,68,0.00,,---,0.00,VWS V14.01,2013-04-21 08:50:00,
2013-04-21 00:55:00,19.7,11.2,30.47,NW,315,2.0,4.0,69,0.00,,---,0.00,VWS V14.01,2013-04-21 08:55:00,
2013-04-21 01:00:00,19.7,11.2,30.47,NW,315,3.0,5.0,69,0.00,,---,0.00,VWS V14.01,2013-04-21 09:00:00,
2013-04-21 01:05:00,19.8,11.0,30.47,NNW,338,4.0,8.0,68,0.00,,---,0.00,VWS V14.01,2013-04-21 09:05:00,
2013-04-21 01:10:00,20.1,11.2,30.46,NNW,338,5.0,8.0,68,0.00,,---,0.00,VWS V14.01,2013-04-21 09:10:00,
2013-04-21 01:15:00,20.2,11.0,30.46,NNW,338,4.0,6.0,67,0.00,,---,0.00,VWS V14.01,2013-04-21 09:15:00,
2013-04-21 01:20:00,20.3,11.1,30.46,NW,315,4.0,7.0,67,0.00,,---,0.00,VWS V14.01,2013-04-21 09:20:00,
2013-04-21 01:25:00,20.1,10.9,30.47,NNW,338,4.0,7.0,67,0.00,,---,0.00,VWS V14.01,2013-04-21 09:25:00,
2013-04-21 01:30:00,19.8,10.6,30.47,NNW,338,3.0,6.0,67,0.00,,---,0.00,VWS V14.01,2013-04-21 09:30:00,
2013-04-21 01:35:00,19.5,10.3,30.47,NNW,338,0.0,2.0,67,0.00,,---,0.00,VWS V14.01,2013-04-21 09:35:00,
2013-04-21 01:40:00,18.5,9.4,30.47,NNW,338,0.0,0.0,67,0.00,,---,0.00,VWS V14.01,2013-04-21 09:40:00,
2013-04-21 01:45:00,17.8,9.4,30.47,NNW,338,0.0,3.0,69,0.00,,---,0.00,VWS V14.01,2013-04-21 09:45:00,
2013-04-21 01:50:00,17.7,9.6,30.47,NNW,338,2.0,4.0,70,0.00,,---,0.00,VWS V14.01,2013-04-21 09:50:00,
2013-04-21 01:55:00,17.7,9.9,30.47,NNW,338,1.0,4.0,71,0.00,,---,0.00,VWS V14.01,2013-04-21 09:55:00,
2013-04-21 02:00:00,17.0,8.6,30.47,NNW,338,0.0,0.0,69,0.00,,---,0.00,VWS V14.01,2013-04-21 10:00:00,
2013-04-21 02:05:00,15.6,7.6,30.47,NNW,338,0.0,1.0,70,0.00,,---,0.00,VWS V14.01,2013-04-21 10:05:00,
2013-04-21 02:10:00,14.5,7.1,30.47,NNW,338,0.0,1.0,72,0.00,,---,0.00,VWS V14.01,2013-04-21 10:10:00,
2013-04-21 02:15:00,14.4,8.2,30.47,NNW,338,2.0,6.0,76,0.00,,---,0.00,VWS V14.01,2013-04-21 10:15:00,
2013-04-21 02:20:00,15.7,9.2,30.47,NNW,338,5.0,8.0,75,0.00,,---,0.00,VWS V14.01,2013-04-21 10:20:00,
2013-04-21 02:25:00,16.7,9.6,30.47,NNW,338,5.0,8.0,73,0.00,,---,0.00,VWS V14.01,2013-04-21 10:25:00,
2013-04-21 02:30:00,16.9,9.4,30.47,NNW,338,4.0,6.0,72,0.00,,---,0.00,VWS V14.01,2013-04-21 10:30:00,
2013-04-21 02:35:00,16.9,9.1,30.47,NNW,338,3.0,6.0,71,0.00,,---,0.00,VWS V14.01,2013-04-21 10:35:00,
2013-04-21 02:40:00,16.9,9.1,30.47,NNW,338,2.0,5.0,71,0.00,,---,0.00,VWS V14.01,2013-04-21 10:40:00,
2013-04-21 02:45:00,16.6,8.9,30.47,NNW,338,1.0,5.0,71,0.00,,---,0.00,VWS V14.01,2013-04-21 10:45:00,
2013-04-21 02:50:00,16.5,9.1,30.47,NNW,338,2.0,6.0,72,0.00,,---,0.00,VWS V14.01,2013-04-21 10:50:00,
2013-04-21 02:55:00,16.9,9.1,30.47,NNW,338,2.0,6.0,71,0.00,,---,0.00,VWS V14.01,2013-04-21 10:55:00,
2013-04-21 03:00:00,16.3,7.9,30.47,NW,315,0.0,2.0,69,0.00,,---,0.00,VWS V14.01,2013-04-21 11:00:00,
2013-04-21 03:05:00,15.6,7.6,30.47,NW,315,0.0,1.0,70,0.00,,---,0.00,VWS V14.01,2013-04-21 11:05:00,
2013-04-21 03:10:00,12.5,6.4,30.47,NW,315,2.0,2.0,76,0.00,,---,0.00,VWS V14.01,2013-04-21 11:10:00,
2013-04-21 03:15:00,12.8,6.7,30.47,NW,315,2.0,3.0,76,0.00,,---,0.00,VWS V14.01,2013-04-21 11:15:00,
2013-04-21 03:20:00,12.6,6.2,30.47,NW,315,2.0,3.0,75,0.00,,---,0.00,VWS V14.01,2013-04-21 11:20:00,
2013-04-21 03:25:00,12.8,6.4,30.47,NW,315,2.0,2.0,75,0.00,,---,0.00,VWS V14.01,2013-04-21 11:25:00,
2013-04-21 03:30:00,12.2,5.5,30.47,NNE,22,0.0,2.0,74,0.00,,---,0.00,VWS V14.01,2013-04-21 11:30:00,
2013-04-21 03:35:00,11.9,5.8,30.47,NNE,22,1.0,2.0,76,0.00,,---,0.00,VWS V14.01,2013-04-21 11:35:00,
2013-04-21 03:40:00,11.9,5.8,30.47,NNE,22,1.0,2.0,76,0.00,,---,0.00,VWS V14.01,2013-04-21 11:40:00,
2013-04-21 03:45:00,11.8,5.7,30.47,NNE,22,1.0,2.0,76,0.00,,---,0.00,VWS V14.01,2013-04-21 11:45:00,
2013-04-21 03:50:00,11.3,5.2,30.47,North,0,2.0,3.0,76,0.00,,---,0.00,VWS V14.01,2013-04-21 11:50:00,
2013-04-21 03:55:00,10.9,5.1,30.47,North,0,2.0,3.0,77,0.00,,---,0.00,VWS V14.01,2013-04-21 11:55:00,
2013-04-21 04:00:00,10.7,5.2,30.47,NNW,338,2.0,3.0,78,0.00,,---,0.00,VWS V14.01,2013-04-21 12:00:00,
2013-04-21 04:05:00,10.5,4.7,30.47,NW,315,2.0,3.0,77,0.00,,---,0.00,VWS V14.01,2013-04-21 12:05:00,
2013-04-21 04:10:00,10.3,4.5,30.47,NNW,338,2.0,3.0,77,0.00,,---,0.00,VWS V14.01,2013-04-21 12:10:00,
2013-04-21 04:15:00,9.4,3.4,30.47,NNE,22,2.0,3.0,76,0.00,,---,0.00,VWS V14.01,2013-04-21 12:15:00,
2013-04-21 04:20:00,9.2,4.0,30.47,NNW,338,2.0,3.0,79,0.00,,---,0.00,VWS V14.01,2013-04-21 12:20:00,
2013-04-21 04:25:00,9.5,4.3,30.47,NNW,338,2.0,3.0,79,0.00,,---,0.00,VWS V14.01,2013-04-21 12:25:00,
2013-04-21 04:30:00,10.0,4.8,30.47,WNW,292,2.0,3.0,79,0.00,,---,0.00,VWS V14.01,2013-04-21 12:30:00,
2013-04-21 04:35:00,8.3,4.0,30.46,WNW,292,0.0,0.0,82,0.00,,---,0.00,VWS V14.01,2013-04-21 12:35:00,
2013-04-21 04:40:00,7.8,3.5,30.47,WNW,292,0.0,0.0,82,0.00,,---,0.00,VWS V14.01,2013-04-21 12:40:00,
2013-04-21 04:45:00,7.6,3.5,30.47,WNW,292,0.0,0.0,83,0.00,,---,0.00,VWS V14.01,2013-04-21 12:45:00,
2013-04-21 04:50:00,7.6,3.8,30.47,WNW,292,0.0,0.0,84,0.00,,---,0.00,VWS V14.01,2013-04-21 12:50:00,
2013-04-21 04:55:00,7.5,3.9,30.47,WNW,292,0.0,0.0,85,0.00,,---,0.00,VWS V14.01,2013-04-21 12:55:00,
2013-04-21 05:00:00,7.7,4.4,30.47,WNW,292,0.0,0.0,86,0.00,,---,0.00,VWS V14.01,2013-04-21 13:00:00,
2013-04-21 05:05:00,8.0,4.7,30.47,NW,315,0.0,2.0,86,0.00,,---,0.00,VWS V14.01,2013-04-21 13:05:00,
2013-04-21 05:10:00,8.1,4.5,30.47,NW,315,0.0,0.0,85,0.00,,---,0.00,VWS V14.01,2013-04-21 13:10:00,
2013-04-21 05:15:00,8.1,4.5,30.47,NW,315,0.0,0.0,85,0.00,,---,0.00,VWS V14.01,2013-04-21 13:15:00,
2013-04-21 05:20:00,8.2,4.6,30.47,NW,315,0.0,0.0,85,0.00,,---,0.00,VWS V14.01,2013-04-21 13:20:00,
2013-04-21 05:25:00,8.1,4.3,30.47,NW,315,0.0,0.0,84,0.00,,---,0.00,VWS V14.01,2013-04-21 13:25:00,
2013-04-21 05:30:00,7.9,4.1,30.47,NW,315,0.0,2.0,84,0.00,,---,0.00,VWS V14.01,2013-04-21 13:30:00,
2013-04-21 05:35:00,7.7,3.9,30.47,NW,315,0.0,2.0,84,0.00,,---,0.00,VWS V14.01,2013-04-21 13:35:00,
2013-04-21 05:40:00,7.4,3.6,30.47,NW,315,0.0,0.0,84,0.00,,---,0.00,VWS V14.01,2013-04-21 13:40:00,
2013-04-21 05:45:00,7.2,3.7,30.47,NW,315,0.0,0.0,85,0.00,,---,0.00,VWS V14.01,2013-04-21 13:45:00,
2013-04-21 05:50:00,7.1,3.5,30.47,NW,315,0.0,0.0,85,0.00,,---,0.00,VWS V14.01,2013-04-21 13:50:00,
2013-04-21 05:55:00,7.2,3.7,30.47,NW,315,0.0,2.0,85,0.00,,---,0.00,VWS V14.01,2013-04-21 13:55:00,
2013-04-21 06:00:00,7.2,3.7,30.47,NW,315,0.0,0.0,85,0.00,,---,0.00,VWS V14.01,2013-04-21 14:00:00,
2013-04-21 06:05:00,7.1,3.3,30.46,NW,315,0.0,0.0,84,0.00,,---,0.00,VWS V14.01,2013-04-21 14:05:00,
2013-04-21 06:10:00,6.8,3.0,30.46,NW,315,0.0,0.0,84,0.00,,---,0.00,VWS V14.01,2013-04-21 14:10:00,
2013-04-21 06:15:00,6.6,2.8,30.46,NW,315,0.0,0.0,84,0.00,,---,0.00,VWS V14.01,2013-04-21 14:15:00,
2013-04-21 06:20:00,6.8,3.3,30.47,NW,315,0.0,0.0,85,0.00,,---,0.00,VWS V14.01,2013-04-21 14:20:00,
2013-04-21 06:25:00,6.9,3.3,30.47,NW,315,0.0,0.0,85,0.00,,---,0.00,VWS V14.01,2013-04-21 14:25:00,
2013-04-21 06:30:00,7.1,3.5,30.47,NW,315,0.0,0.0,85,0.00,,---,0.00,VWS V14.01,2013-04-21 14:30:00,
2013-04-21 06:35:00,7.2,3.4,30.47,NW,315,0.0,0.0,84,0.00,,---,0.00,VWS V14.01,2013-04-21 14:35:00,
2013-04-21 06:40:00,7.1,3.5,30.47,NW,315,0.0,0.0,85,0.00,,---,0.00,VWS V14.01,2013-04-21 14:40:00,
2013-04-21 06:45:00,7.2,3.7,30.47,NW,315,0.0,2.0,85,0.00,,---,0.00,VWS V14.01,2013-04-21 14:45:00,
2013-04-21 06:50:00,7.1,3.3,30.47,NW,315,0.0,0.0,84,0.00,,---,0.00,VWS V14.01,2013-04-21 14:50:00,
2013-04-21 06:55:00,6.9,3.1,30.47,NW,315,2.0,3.0,84,0.00,,---,0.00,VWS V14.01,2013-04-21 14:55:00,
2013-04-21 07:00:00,6.8,3.0,30.47,NW,315,2.0,3.0,84,0.00,,---,0.00,VWS V14.01,2013-04-21 15:00:00,
2013-04-21 07:05:00,6.7,2.9,30.47,NW,315,1.0,3.0,84,0.00,,---,0.00,VWS V14.01,2013-04-21 15:05:00,
2013-04-21 07:10:00,6.6,2.8,30.47,NW,315,0.0,2.0,84,0.00,,---,0.00,VWS V14.01,2013-04-21 15:10:00,
2013-04-21 07:15:00,6.4,2.6,30.47,NW,315,0.0,0.0,84,0.00,,---,0.00,VWS V14.01,2013-04-21 15:15:00,
2013-04-21 07:20:00,6.3,2.5,30.47,NW,315,1.0,2.0,84,0.00,,---,0.00,VWS V14.01,2013-04-21 15:20:00,
2013-04-21 07:25:00,6.4,2.6,30.47,NW,315,1.0,3.0,84,0.00,,---,0.00,VWS V14.01,2013-04-21 15:25:00,
2013-04-21 07:30:00,6.3,2.5,30.47,NW,315,0.0,0.0,84,0.00,,---,0.00,VWS V14.01,2013-04-21 15:30:00,
2013-04-21 07:35:00,6.2,2.4,30.47,NW,315,0.0,0.0,84,0.00,,---,0.00,VWS V14.01,2013-04-21 15:35:00,
2013-04-21 07:40:00,6.1,2.3,30.48,NW,315,0.0,0.0,84,0.00,,---,0.00,VWS V14.01,2013-04-21 15:40:00,
2013-04-21 07:45:00,5.9,2.1,30.47,NW,315,0.0,2.0,84,0.00,,---,0.00,VWS V14.01,2013-04-21 15:45:00,
2013-04-21 07:50:00,6.0,2.2,30.47,NW,315,1.0,3.0,84,0.00,,---,0.00,VWS V14.01,2013-04-21 15:50:00,
2013-04-21 07:55:00,6.1,2.3,30.47,NW,315,1.0,3.0,84,0.00,,---,0.00,VWS V14.01,2013-04-21 15:55:00,
2013-04-21 08:00:00,6.2,2.4,30.47,NW,315,0.0,1.0,84,0.00,,---,0.00,VWS V14.01,2013-04-21 16:00:00,
2013-04-21 08:05:00,6.2,2.4,30.47,NW,315,0.0,0.0,84,0.00,,---,0.00,VWS V14.01,2013-04-21 16:05:00,
2013-04-21 08:10:00,6.2,2.4,30.47,NW,315,0.0,0.0,84,0.00,,---,0.00,VWS V14.01,2013-04-21 16:10:00,
2013-04-21 08:15:00,6.2,2.2,30.47,NW,315,0.0,0.0,83,0.00,,---,0.00,VWS V14.01,2013-04-21 16:15:00,
2013-04-21 08:20:00,6.3,2.5,30.47,NW,315,0.0,1.0,84,0.00,,---,0.00,VWS V14.01,2013-04-21 16:20:00,
2013-04-21 08:25:00,6.4,2.3,30.47,NW,315,0.0,0.0,83,0.00,,---,0.00,VWS V14.01,2013-04-21 16:25:00,
2013-04-21 08:30:00,6.9,2.8,30.47,NW,315,0.0,1.0,83,0.00,,---,0.00,VWS V14.01,2013-04-21 16:30:00,
2013-04-21 08:35:00,7.4,3.3,30.47,NW,315,0.0,2.0,83,0.00,,---,0.00,VWS V14.01,2013-04-21 16:35:00,
2013-04-21 08:40:00,7.8,3.2,30.47,NW,315,1.0,2.0,81,0.00,,---,0.00,VWS V14.01,2013-04-21 16:40:00,
2013-04-21 08:45:00,8.5,3.9,30.47,NW,315,0.0,2.0,81,0.00,,---,0.00,VWS V14.01,2013-04-21 16:45:00,
2013-04-21 08:50:00,9.0,4.1,30.47,NW,315,1.0,3.0,80,0.00,,---,0.00,VWS V14.01,2013-04-21 16:50:00,
2013-04-21 08:55:00,9.4,4.2,30.48,NW,315,0.0,2.0,79,0.00,,---,0.00,VWS V14.01,2013-04-21 16:55:00,
2013-04-21 09:00:00,9.8,4.3,30.48,NW,315,0.0,0.0,78,0.00,,---,0.00,VWS V14.01,2013-04-21 17:00:00,
2013-04-21 09:05:00,10.4,4.6,30.48,NW,315,0.0,2.0,77,0.00,,---,0.00,VWS V14.01,2013-04-21 17:05:00,
2013-04-21 09:10:00,10.9,5.1,30.48,NW,315,0.0,2.0,77,0.00,,---,0.00,VWS V14.01,2013-04-21 17:10:00,
2013-04-21 09:15:00,11.5,5.4,30.47,NW,315,0.0,0.0,76,0.00,,---,0.00,VWS V14.01,2013-04-21 17:15:00,
2013-04-21 09:20:00,11.8,5.1,30.47,NW,315,1.0,2.0,74,0.00,,---,0.00,VWS V14.01,2013-04-21 17:20:00,
2013-04-21 09:25:00,11.8,5.1,30.47,NW,315,0.0,2.0,74,0.00,,---,0.00,VWS V14.01,2013-04-21 17:25:00,
2013-04-21 09:30:00,12.3,5.6,30.47,NW,315,0.0,3.0,74,0.00,,---,0.00,VWS V14.01,2013-04-21 17:30:00,
2013-04-21 09:35:00,12.5,5.2,30.47,NW,315,0.0,3.0,72,0.00,,---,0.00,VWS V14.01,2013-04-21 17:35:00,
2013-04-21 09:40:00,13.0,5.7,30.47,NW,315,1.0,4.0,72,0.00,,---,0.00,VWS V14.01,2013-04-21 17:40:00,
2013-04-21 09:45:00,13.4,5.8,30.47,NW,315,2.0,6.0,71,0.00,,---,0.00,VWS V14.01,2013-04-21 17:45:00,
2013-04-21 09:50:00,13.7,5.8,30.47,NW,315,1.0,3.0,70,0.00,,---,0.00,VWS V14.01,2013-04-21 17:50:00,
2013-04-21 09:55:00,13.7,5.8,30.47,NW,315,2.0,4.0,70,0.00,,---,0.00,VWS V14.01,2013-04-21 17:55:00,
2013-04-21 10:00:00,13.8,6.2,30.47,NW,315,1.0,3.0,71,0.00,,---,0.00,VWS V14.01,2013-04-21 18:00:00,
2013-04-21 10:05:00,13.8,5.8,30.47,NW,315,2.0,4.0,70,0.00,,---,0.00,VWS V14.01,2013-04-21 18:05:00,
2013-04-21 10:10:00,13.8,5.5,30.47,NW,315,0.0,2.0,69,0.00,,---,0.00,VWS V14.01,2013-04-21 18:10:00,
2013-04-21 10:15:00,14.2,6.2,30.47,NW,315,1.0,3.0,70,0.00,,---,0.00,VWS V14.01,2013-04-21 18:15:00,
2013-04-21 10:20:00,14.5,6.5,30.47,NW,315,2.0,3.0,70,0.00,,---,0.00,VWS V14.01,2013-04-21 18:20:00,
2013-04-21 10:25:00,14.9,6.6,30.47,NW,315,0.0,2.0,69,0.00,,---,0.00,VWS V14.01,2013-04-21 18:25:00,
2013-04-21 10:30:00,15.4,7.1,30.47,NW,315,1.0,3.0,69,0.00,,---,0.00,VWS V14.01,2013-04-21 18:30:00,
2013-04-21 10:35:00,16.3,7.9,30.47,NW,315,0.0,2.0,69,0.00,,---,0.00,VWS V14.01,2013-04-21 18:35:00,
2013-04-21 10:40:00,17.3,7.9,30.47,NW,315,0.0,1.0,66,0.00,,---,0.00,VWS V14.01,2013-04-21 18:40:00,
2013-04-21 10:45:00,18.1,8.3,30.47,NW,315,0.0,0.0,65,0.00,,---,0.00,VWS V14.01,2013-04-21 18:45:00,
2013-04-21 10:50:00,19.1,8.9,30.47,NW,315,0.0,0.0,64,0.00,,---,0.00,VWS V14.01,2013-04-21 18:50:00,
2013-04-21 10:55:00,19.8,8.9,30.47,NW,315,0.0,1.0,62,0.00,,---,0.00,VWS V14.01,2013-04-21 18:55:00,
2013-04-21 11:00:00,20.7,9.8,30.47,NW,315,0.0,0.0,62,0.00,,---,0.00,VWS V14.01,2013-04-21 19:00:00,
2013-04-21 11:05:00,21.3,10.0,30.47,NW,315,0.0,0.0,61,0.00,,---,0.00,VWS V14.01,2013-04-21 19:05:00,
2013-04-21 11:10:00,22.1,10.0,30.47,NW,315,0.0,0.0,59,0.00,,---,0.00,VWS V14.01,2013-04-21 19:10:00,
2013-04-21 11:15:00,23.1,10.5,30.47,NW,315,0.0,0.0,58,0.00,,---,0.00,VWS V14.01,2013-04-21 19:15:00,
2013-04-21 11:20:00,23.5,10.1,30.47,NW,315,0.0,0.0,56,0.00,,---,0.00,VWS V14.01,2013-04-21 19:20:00,
2013-04-21 11:25:00,23.9,10.1,30.47,NW,315,0.0,0.0,55,0.00,,---,0.00,VWS V14.01,2013-04-21 19:25:00,
2013-04-21 11:30:00,23.5,10.1,30.47,NW,315,0.0,2.0,56,0.00,,---,0.00,VWS V14.01,2013-04-21 19:30:00,
2013-04-21 11:35:00,23.4,10.4,30.47,NW,315,1.0,2.0,57,0.00,,---,0.00,VWS V14.01,2013-04-21 19:35:00,
2013-04-21 11:40:00,24.0,10.6,30.47,NW,315,0.0,1.0,56,0.00,,---,0.00,VWS V14.01,2013-04-21 19:40:00,
2013-04-21 11:45:00,24.2,10.8,30.47,NW,315,1.0,3.0,56,0.00,,---,0.00,VWS V14.01,2013-04-21 19:45:00,
2013-04-21 11:50:00,23.8,10.4,30.47,NW,315,1.0,3.0,56,0.00,,---,0.00,VWS V14.01,2013-04-21 19:50:00,
2013-04-21 11:55:00,23.7,10.7,30.47,NW,315,1.0,3.0,57,0.00,,---,0.00,VWS V14.01,2013-04-21 19:55:00,
2013-04-21 12:00:00,24.5,11.5,30.47,NW,315,1.0,2.0,57,0.00,,---,0.00,VWS V14.01,2013-04-21 20:00:00,
2013-04-21 12:05:00,25.1,11.6,30.47,NW,315,1.0,2.0,56,0.00,,---,0.00,VWS V14.01,2013-04-21 20:05:00,
2013-04-21 12:10:00,26.3,11.9,30.47,NW,315,0.0,1.0,54,0.00,,---,0.00,VWS V14.01,2013-04-21 20:10:00,
2013-04-21 12:15:00,27.4,12.1,30.47,NW,315,0.0,1.0,52,0.00,,---,0.00,VWS V14.01,2013-04-21 20:15:00,
2013-04-21 12:20:00,29.0,13.1,30.47,NW,315,0.0,0.0,51,0.00,,---,0.00,VWS V14.01,2013-04-21 20:20:00,
2013-04-21 12:25:00,30.2,12.9,30.47,NW,315,0.0,0.0,48,0.00,,---,0.00,VWS V14.01,2013-04-21 20:25:00,
2013-04-21 12:30:00,30.5,13.2,30.47,NW,315,0.0,0.0,48,0.00,,---,0.00,VWS V14.01,2013-04-21 20:30:00,
2013-04-21 12:35:00,30.5,13.2,30.47,NW,315,0.0,0.0,48,0.00,,---,0.00,VWS V14.01,2013-04-21 20:35:00,
2013-04-21 12:40:00,30.5,13.6,30.47,NW,315,0.0,1.0,49,0.00,,---,0.00,VWS V14.01,2013-04-21 20:40:00,
2013-04-21 12:45:00,29.8,13.0,30.47,ENE,68,1.0,5.0,49,0.00,,---,0.00,VWS V14.01,2013-04-21 20:45:00,
2013-04-21 12:50:00,28.4,13.0,30.47,ENE,68,1.0,3.0,52,0.00,,---,0.00,VWS V14.01,2013-04-21 20:50:00,
2013-04-21 12:55:00,27.5,12.6,30.47,ENE,68,1.0,2.0,53,0.00,,---,0.00,VWS V14.01,2013-04-21 20:55:00,
2013-04-21 13:00:00,27.0,12.2,30.47,ENE,68,1.0,3.0,53,0.00,,---,0.00,VWS V14.01,2013-04-21 21:00:00,
2013-04-21 13:05:00,27.1,12.2,30.47,ENE,68,0.0,1.0,53,0.00,,---,0.00,VWS V14.01,2013-04-21 21:05:00,
2013-04-21 13:10:00,27.6,13.1,30.48,ENE,68,0.0,2.0,54,0.00,,---,0.00,VWS V14.01,2013-04-21 21:10:00,
2013-04-21 13:15:00,28.3,13.4,30.47,ENE,68,0.0,2.0,53,0.00,,---,0.00,VWS V14.01,2013-04-21 21:15:00,
2013-04-21 13:20:00,28.7,12.9,30.47,ENE,68,0.0,1.0,51,0.00,,---,0.00,VWS V14.01,2013-04-21 21:20:00,
2013-04-21 13:25:00,29.0,13.6,30.47,ENE,68,1.0,3.0,52,0.00,,---,0.00,VWS V14.01,2013-04-21 21:25:00,
2013-04-21 13:30:00,28.5,14.0,30.47,East,90,3.0,6.0,54,0.00,,---,0.00,VWS V14.01,2013-04-21 21:30:00,
2013-04-21 13:35:00,27.6,13.1,30.47,ESE,112,4.0,6.0,54,0.00,,---,0.00,VWS V14.01,2013-04-21 21:35:00,
2013-04-21 13:40:00,27.2,14.8,30.47,ESE,112,3.0,6.0,59,0.00,,---,0.00,VWS V14.01,2013-04-21 21:40:00,
2013-04-21 13:45:00,26.8,13.2,30.47,ESE,112,4.0,6.0,56,0.00,,---,0.00,VWS V14.01,2013-04-21 21:45:00,
2013-04-21 13:50:00,26.9,12.9,30.47,ESE,112,2.0,5.0,55,0.00,,---,0.00,VWS V14.01,2013-04-21 21:50:00,
2013-04-21 13:55:00,27.2,12.4,30.47,ESE,112,2.0,5.0,53,0.00,,---,0.00,VWS V14.01,2013-04-21 21:55:00,
2013-04-21 14:00:00,27.6,13.1,30.47,ESE,112,2.0,5.0,54,0.00,,---,0.00,VWS V14.01,2013-04-21 22:00:00,
2013-04-21 14:05:00,28.1,13.2,30.47,ESE,112,3.0,6.0,53,0.00,,---,0.00,VWS V14.01,2013-04-21 22:05:00,
2013-04-21 14:10:00,28.9,13.9,30.47,ESE,112,3.0,5.0,53,0.00,,---,0.00,VWS V14.01,2013-04-21 22:10:00,
2013-04-21 14:15:00,29.6,14.6,30.47,ESE,112,2.0,5.0,53,0.00,,---,0.00,VWS V14.01,2013-04-21 22:15:00,
2013-04-21 14:20:00,30.1,15.1,30.47,ESE,112,3.0,6.0,53,0.00,,---,0.00,VWS V14.01,2013-04-21 22:20:00,
2013-04-21 14:25:00,30.3,14.4,30.47,ESE,112,3.0,6.0,51,0.00,,---,0.00,VWS V14.01,2013-04-21 22:25:00,
2013-04-21 14:30:00,30.4,14.4,30.47,SE,135,3.0,6.0,51,0.00,,---,0.00,VWS V14.01,2013-04-21 22:30:00,
2013-04-21 14:35:00,30.2,14.7,30.46,SE,135,3.0,6.0,52,0.00,,---,0.00,VWS V14.01,2013-04-21 22:35:00,
2013-04-21 14:40:00,30.0,15.4,30.47,SE,135,3.0,6.0,54,0.00,,---,0.00,VWS V14.01,2013-04-21 22:40:00,
2013-04-21 14:45:00,29.8,16.0,30.47,SE,135,4.0,7.0,56,0.00,,---,0.00,VWS V14.01,2013-04-21 22:45:00,
2013-04-21 14:50:00,29.4,16.5,30.47,SE,135,4.0,7.0,58,0.00,,---,0.00,VWS V14.01,2013-04-21 22:50:00,
2013-04-21 14:55:00,28.7,15.8,30.47,SE,135,4.0,6.0,58,0.00,,---,0.00,VWS V14.01,2013-04-21 22:55:00,
2013-04-21 15:00:00,28.1,16.0,30.47,SE,135,5.0,6.0,60,0.00,,---,0.00,VWS V14.01,2013-04-21 23:00:00,
2013-04-21 15:05:00,28.0,16.7,30.46,SE,135,4.0,6.0,62,0.00,,---,0.00,VWS V14.01,2013-04-21 23:05:00,
2013-04-21 15:10:00,28.1,16.0,30.46,SE,135,3.0,5.0,60,0.00,,---,0.00,VWS V14.01,2013-04-21 23:10:00,
2013-04-21 15:15:00,28.4,16.3,30.46,SE,135,2.0,5.0,60,0.00,,---,0.00,VWS V14.01,2013-04-21 23:15:00,
2013-04-21 15:20:00,28.9,17.2,30.46,SE,135,2.0,5.0,61,0.00,,---,0.00,VWS V14.01,2013-04-21 23:20:00,
2013-04-21 15:25:00,29.5,17.7,30.46,SE,135,2.0,5.0,61,0.00,,---,0.00,VWS V14.01,2013-04-21 23:25:00,
2013-04-21 15:30:00,29.8,17.6,30.46,SE,135,2.0,5.0,60,0.00,,---,0.00,VWS V14.01,2013-04-21 23:30:00,
2013-04-21 15:35:00,29.9,17.7,30.46,SE,135,2.0,5.0,60,0.00,,---,0.00,VWS V14.01,2013-04-21 23:35:00,
2013-04-21 15:40:00,30.4,18.2,30.46,SE,135,2.0,5.0,60,0.00,,---,0.00,VWS V14.01,2013-04-21 23:40:00,
2013-04-21 15:45:00,30.8,17.8,30.46,SE,135,2.0,4.0,58,0.00,,---,0.00,VWS V14.01,2013-04-21 23:45:00,
2013-04-21 15:50:00,30.6,17.2,30.46,SE,135,1.0,4.0,57,0.00,,---,0.00,VWS V14.01,2013-04-21 23:50:00,
2013-04-21 15:55:00,30.8,17.4,30.46,SE,135,2.0,5.0,57,0.00,,---,0.00,VWS V14.01,2013-04-21 23:55:00,
2013-04-21 16:00:00,31.0,17.2,30.46,SE,135,2.0,6.0,56,0.00,,---,0.00,VWS V14.01,2013-04-22 00:00:00,
2013-04-21 16:05:00,31.4,17.9,30.46,SE,135,2.0,5.0,57,0.00,,---,0.00,VWS V14.01,2013-04-22 00:05:00,
2013-04-21 16:10:00,31.6,17.7,30.46,SE,135,2.0,6.0,56,0.00,,---,0.00,VWS V14.01,2013-04-22 00:10:00,
2013-04-21 16:15:00,31.3,17.9,30.46,SE,135,1.0,4.0,57,0.00,,---,0.00,VWS V14.01,2013-04-22 00:15:00,
2013-04-21 16:20:00,31.2,17.8,30.46,SE,135,1.0,4.0,57,0.00,,---,0.00,VWS V14.01,2013-04-22 00:20:00,
2013-04-21 16:25:00,30.8,17.8,30.46,SE,135,1.0,4.0,58,0.00,,---,0.00,VWS V14.01,2013-04-22 00:25:00,
2013-04-21 16:30:00,30.8,18.2,30.45,SE,135,2.0,5.0,59,0.00,,---,0.00,VWS V14.01,2013-04-22 00:30:00,
2013-04-21 16:35:00,30.9,18.7,30.45,SE,135,2.0,4.0,60,0.00,,---,0.00,VWS V14.01,2013-04-22 00:35:00,
2013-04-21 16:40:00,30.8,18.6,30.45,SE,135,2.0,6.0,60,0.00,,---,0.00,VWS V14.01,2013-04-22 00:40:00,
2013-04-21 16:45:00,30.7,18.5,30.45,SE,135,2.0,5.0,60,0.00,,---,0.00,VWS V14.01,2013-04-22 00:45:00,
2013-04-21 16:50:00,30.5,18.7,30.45,SE,135,2.0,5.0,61,0.00,,---,0.00,VWS V14.01,2013-04-22 00:50:00,
2013-04-21 16:55:00,30.8,18.6,30.45,SE,135,3.0,6.0,60,0.00,,---,0.00,VWS V14.01,2013-04-22 00:55:00,
2013-04-21 17:00:00,30.3,18.5,30.45,SE,135,2.0,5.0,61,0.00,,---,0.00,VWS V14.01,2013-04-22 01:00:00,
2013-04-21 17:05:00,29.7,17.9,30.45,SE,135,3.0,5.0,61,0.00,,---,0.00,VWS V14.01,2013-04-22 01:05:00,
2013-04-21 17:10:00,29.4,18.4,30.45,SE,135,1.0,4.0,63,0.00,,---,0.00,VWS V14.01,2013-04-22 01:10:00,
2013-04-21 17:15:00,29.5,19.2,30.45,SE,135,2.0,5.0,65,0.00,,---,0.00,VWS V14.01,2013-04-22 01:15:00,
2013-04-21 17:20:00,29.2,19.3,30.45,SE,135,2.0,4.0,66,0.00,,---,0.00,VWS V14.01,2013-04-22 01:20:00,
2013-04-21 17:25:00,29.4,19.8,30.44,SE,135,2.0,5.0,67,0.00,,---,0.00,VWS V14.01,2013-04-22 01:25:00,
2013-04-21 17:30:00,29.6,20.4,30.44,SE,135,2.0,5.0,68,0.00,,---,0.00,VWS V14.01,2013-04-22 01:30:00,
2013-04-21 17:35:00,30.0,20.4,30.44,SE,135,2.0,5.0,67,0.00,,---,0.00,VWS V14.01,2013-04-22 01:35:00,
2013-04-21 17:40:00,30.1,20.8,30.44,SE,135,2.0,5.0,68,0.00,,---,0.00,VWS V14.01,2013-04-22 01:40:00,
2013-04-21 17:45:00,30.4,21.1,30.44,SE,135,2.0,5.0,68,0.00,,---,0.00,VWS V14.01,2013-04-22 01:45:00,
2013-04-21 17:50:00,30.5,21.2,30.44,SE,135,2.0,5.0,68,0.00,,---,0.00,VWS V14.01,2013-04-22 01:50:00,
2013-04-21 17:55:00,30.1,20.8,30.44,SE,135,2.0,5.0,68,0.00,,---,0.00,VWS V14.01,2013-04-22 01:55:00,
2013-04-21 18:00:00,30.1,20.5,30.44,SE,135,1.0,4.0,67,0.00,,---,0.00,VWS V14.01,2013-04-22 02:00:00,
2013-04-21 18:05:00,30.0,20.7,30.44,SE,135,1.0,5.0,68,0.00,,---,0.00,VWS V14.01,2013-04-22 02:05:00,
2013-04-21 18:10:00,29.6,20.7,30.44,SE,135,2.0,4.0,69,0.00,,---,0.00,VWS V14.01,2013-04-22 02:10:00,
2013-04-21 18:15:00,29.5,21.3,30.44,SE,135,1.0,4.0,71,0.00,,---,0.00,VWS V14.01,2013-04-22 02:15:00,
2013-04-21 18:20:00,29.5,21.6,30.44,SE,135,3.0,6.0,72,0.00,,---,0.00,VWS V14.01,2013-04-22 02:20:00,
2013-04-21 18:25:00,29.0,21.4,30.44,SE,135,3.0,6.0,73,0.00,,---,0.00,VWS V14.01,2013-04-22 02:25:00,
2013-04-21 18:30:00,28.9,21.7,30.43,SE,135,3.0,6.0,74,0.00,,---,0.00,VWS V14.01,2013-04-22 02:30:00,
2013-04-21 18:35:00,28.7,21.5,30.44,SE,135,3.0,6.0,74,0.00,,---,0.00,VWS V14.01,2013-04-22 02:35:00,
2013-04-21 18:40:00,28.7,21.5,30.43,SE,135,3.0,5.0,74,0.00,,---,0.00,VWS V14.01,2013-04-22 02:40:00,
2013-04-21 18:45:00,28.6,21.7,30.43,SE,135,3.0,5.0,75,0.00,,---,0.00,VWS V14.01,2013-04-22 02:45:00,
2013-04-21 18:50:00,28.6,21.7,30.43,SE,135,2.0,5.0,75,0.00,,---,0.00,VWS V14.01,2013-04-22 02:50:00,
2013-04-21 18:55:00,28.5,21.3,30.43,SE,135,3.0,5.0,74,0.00,,---,0.00,VWS V14.01,2013-04-22 02:55:00,
2013-04-21 19:00:00,28.4,21.2,30.43,SE,135,2.0,5.0,74,0.00,,---,0.00,VWS V14.01,2013-04-22 03:00:00,
2013-04-21 19:05:00,28.4,21.2,30.43,SE,135,2.0,4.0,74,0.00,,---,0.00,VWS V14.01,2013-04-22 03:05:00,
2013-04-21 19:10:00,28.5,21.3,30.43,SE,135,1.0,4.0,74,0.00,,---,0.00,VWS V14.01,2013-04-22 03:10:00,
2013-04-21 19:15:00,28.6,20.7,30.43,SE,135,1.0,4.0,72,0.00,,---,0.00,VWS V14.01,2013-04-22 03:15:00,
2013-04-21 19:20:00,28.5,21.0,30.43,SE,135,1.0,2.0,73,0.00,,---,0.00,VWS V14.01,2013-04-22 03:20:00,
2013-04-21 19:25:00,28.7,20.8,30.43,SE,135,0.0,2.0,72,0.00,,---,0.00,VWS V14.01,2013-04-22 03:25:00,
2013-04-21 19:30:00,28.5,20.6,30.43,SE,135,0.0,4.0,72,0.00,,---,0.00,VWS V14.01,2013-04-22 03:30:00,
2013-04-21 19:35:00,28.6,20.7,30.43,SE,135,1.0,2.0,72,0.00,,---,0.00,VWS V14.01,2013-04-22 03:35:00,
2013-04-21 19:40:00,28.6,20.7,30.43,SE,135,0.0,1.0,72,0.00,,---,0.00,VWS V14.01,2013-04-22 03:40:00,
2013-04-21 19:45:00,28.5,20.6,30.43,SE,135,0.0,2.0,72,0.00,,---,0.00,VWS V14.01,2013-04-22 03:45:00,
2013-04-21 19:50:00,28.5,21.0,30.42,SE,135,2.0,5.0,73,0.00,,---,0.00,VWS V14.01,2013-04-22 03:50:00,
2013-04-21 19:55:00,28.4,20.9,30.42,SE,135,1.0,4.0,73,0.00,,---,0.00,VWS V14.01,2013-04-22 03:55:00,
2013-04-21 20:00:00,28.2,20.4,30.43,SE,135,2.0,7.0,72,0.00,,---,0.00,VWS V14.01,2013-04-22 04:00:00,
2013-04-21 20:05:00,28.2,20.4,30.42,SE,135,2.0,5.0,72,0.00,,---,0.00,VWS V14.01,2013-04-22 04:05:00,
2013-04-21 20:10:00,28.2,20.0,30.42,SE,135,2.0,5.0,71,0.00,,---,0.00,VWS V14.01,2013-04-22 04:10:00,
2013-04-21 20:15:00,27.9,19.7,30.42,SE,135,2.0,5.0,71,0.00,,---,0.00,VWS V14.01,2013-04-22 04:15:00,
2013-04-21 20:20:00,27.7,19.9,30.42,SE,135,1.0,4.0,72,0.00,,---,0.00,VWS V14.01,2013-04-22 04:20:00,
2013-04-21 20:25:00,27.5,19.7,30.42,SE,135,3.0,5.0,72,0.00,,---,0.00,VWS V14.01,2013-04-22 04:25:00,
2013-04-21 20:30:00,26.9,19.4,30.42,SE,135,2.0,5.0,73,0.00,,---,0.00,VWS V14.01,2013-04-22 04:30:00,
2013-04-21 20:35:00,26.9,19.7,30.42,South,180,2.0,4.0,74,0.00,,---,0.00,VWS V14.01,2013-04-22 04:35:00,
2013-04-21 20:40:00,26.3,19.5,30.42,SSE,158,3.0,6.0,75,0.00,,---,0.00,VWS V14.01,2013-04-22 04:40:00,
2013-04-21 20:45:00,26.0,19.2,30.42,South,180,2.0,5.0,75,0.00,,---,0.00,VWS V14.01,2013-04-22 04:45:00,
2013-04-21 20:50:00,26.0,19.2,30.42,SSE,158,2.0,4.0,75,0.00,,---,0.00,VWS V14.01,2013-04-22 04:50:00,
2013-04-21 20:55:00,26.1,19.3,30.42,South,180,1.0,2.0,75,0.00,,---,0.00,VWS V14.01,2013-04-22 04:55:00,
2013-04-21 21:00:00,26.3,19.5,30.42,South,180,1.0,4.0,75,0.00,,---,0.00,VWS V14.01,2013-04-22 05:00:00,
2013-04-21 21:05:00,26.3,19.1,30.42,South,180,1.0,2.0,74,0.00,,---,0.00,VWS V14.01,2013-04-22 05:05:00,
2013-04-21 21:10:00,26.3,19.1,30.42,South,180,1.0,2.0,74,0.00,,---,0.00,VWS V14.01,2013-04-22 05:10:00,
2013-04-21 21:15:00,26.0,18.9,30.42,South,180,2.0,2.0,74,0.00,,---,0.00,VWS V14.01,2013-04-22 05:15:00,
2013-04-21 21:20:00,25.7,18.6,30.42,South,180,1.0,2.0,74,0.00,,---,0.00,VWS V14.01,2013-04-22 05:20:00,
2013-04-21 21:25:00,25.3,18.2,30.42,South,180,1.0,2.0,74,0.00,,---,0.00,VWS V14.01,2013-04-22 05:25:00,
2013-04-21 21:30:00,24.5,17.7,30.42,South,180,1.0,2.0,75,0.00,,---,0.00,VWS V14.01,2013-04-22 05:30:00,
2013-04-21 21:35:00,24.0,17.2,30.42,South,180,1.0,2.0,75,0.00,,---,0.00,VWS V14.01,2013-04-22 05:35:00,
2013-04-21 21:40:00,23.6,17.2,30.42,South,180,1.0,2.0,76,0.00,,---,0.00,VWS V14.01,2013-04-22 05:40:00,
2013-04-21 21:45:00,23.3,16.9,30.43,South,180,1.0,2.0,76,0.00,,---,0.00,VWS V14.01,2013-04-22 05:45:00,
2013-04-21 21:50:00,23.0,16.9,30.43,South,180,1.0,2.0,77,0.00,,---,0.00,VWS V14.01,2013-04-22 05:50:00,
2013-04-21 21:55:00,22.7,16.6,30.43,South,180,1.0,2.0,77,0.00,,---,0.00,VWS V14.01,2013-04-22 05:55:00,
2013-04-21 22:00:00,22.4,16.3,30.43,SSE,158,1.0,2.0,77,0.00,,---,0.00,VWS V14.01,2013-04-22 06:00:00,
2013-04-21 22:13:00,20.8,15.9,30.43,SE,128,0.0,1.0,81,0.00,,---,0.00,VWS V14.01,2013-04-22 06:13:00,
2013-04-21 22:14:00,20.7,15.8,30.43,SE,128,0.0,1.0,81,0.00,,---,0.00,VWS V14.01,2013-04-22 06:14:00,
2013-04-21 22:18:00,20.2,15.3,30.43,SE,128,0.0,2.0,81,0.00,,---,0.00,VWS V14.01,2013-04-22 06:18:00,
2013-04-21 22:19:00,20.2,15.3,30.43,SE,128,0.0,2.0,81,0.00,,---,0.00,VWS V14.01,2013-04-22 06:19:00,
2013-04-21 22:20:00,20.4,15.5,30.43,SE,128,0.0,1.0,81,0.00,,---,0.00,VWS V14.01,2013-04-22 06:20:00,
2013-04-21 22:24:00,20.2,15.6,30.43,SE,128,0.0,2.0,82,0.00,,---,0.00,VWS V14.01,2013-04-22 06:24:00,
2013-04-21 22:25:00,19.9,15.3,30.43,SE,128,0.0,2.0,82,0.00,,---,0.00,VWS V14.01,2013-04-22 06:25:00,
2013-04-21 22:28:00,19.9,15.3,30.43,SE,128,0.0,2.0,82,0.00,,---,0.00,VWS V14.01,2013-04-22 06:28:00,
2013-04-21 22:29:00,19.7,15.4,30.43,SE,128,0.0,0.0,83,0.00,,---,0.00,VWS V14.01,2013-04-22 06:29:00,
2013-04-21 22:30:00,19.6,15.3,30.43,SE,128,0.0,0.0,83,0.00,,---,0.00,VWS V14.01,2013-04-22 06:30:00,
2013-04-21 22:34:00,19.9,15.3,30.43,SE,128,0.0,0.0,82,0.00,,---,0.00,VWS V14.01,2013-04-22 06:34:00,
2013-04-21 22:35:00,19.8,15.5,30.43,SE,128,0.0,0.0,83,0.00,,---,0.00,VWS V14.01,2013-04-22 06:35:00,
2013-04-21 22:36:00,19.1,14.8,30.43,SE,128,0.0,0.0,83,0.00,,---,0.00,VWS V14.01,2013-04-22 06:36:00,
2013-04-21 22:37:00,19.0,14.7,30.43,SE,128,0.0,0.0,83,0.00,,---,0.00,VWS V14.01,2013-04-22 06:37:00,
2013-04-21 22:38:00,19.0,14.7,30.43,SE,128,0.0,0.0,83,0.00,,---,0.00,VWS V14.01,2013-04-22 06:38:00,
2013-04-21 22:39:00,18.9,14.6,30.43,SE,128,0.0,0.0,83,0.00,,---,0.00,VWS V14.01,2013-04-22 06:39:00,
2013-04-21 22:40:00,18.8,14.5,30.43,SE,128,0.0,0.0,83,0.00,,---,0.00,VWS V14.01,2013-04-22 06:40:00,
2013-04-21 22:43:00,18.5,14.2,30.44,SE,128,0.0,0.0,83,0.00,,---,0.00,VWS V14.01,2013-04-22 06:43:00,
2013-04-21 22:45:00,18.3,14.0,30.43,SE,128,0.0,0.0,83,0.00,,---,0.00,VWS V14.01,2013-04-22 06:45:00,
2013-04-21 22:49:00,18.0,14.0,30.43,SE,128,0.0,0.0,84,0.00,,---,0.00,VWS V14.01,2013-04-22 06:49:00,
2013-04-21 22:50:00,18.0,14.0,30.44,SE,128,0.0,0.0,84,0.00,,---,0.00,VWS V14.01,2013-04-22 06:50:00,
2013-04-21 22:51:00,17.8,13.8,30.44,SE,128,0.0,0.0,84,0.00,,---,0.00,VWS V14.01,2013-04-22 06:51:00,
2013-04-21 22:52:00,17.7,13.7,30.44,SE,128,0.0,0.0,84,0.00,,---,0.00,VWS V14.01,2013-04-22 06:52:00,
2013-04-21 22:53:00,17.6,13.6,30.44,SE,128,0.0,0.0,84,0.00,,---,0.00,VWS V14.01,2013-04-22 06:53:00,
2013-04-21 22:54:00,17.6,13.6,30.44,SE,128,0.0,0.0,84,0.00,,---,0.00,VWS V14.01,2013-04-22 06:54:00,
2013-04-21 22:55:00,17.5,13.5,30.44,SE,128,0.0,0.0,84,0.00,,---,0.00,VWS V14.01,2013-04-22 06:55:00,
2013-04-21 22:56:00,17.4,13.4,30.44,SE,128,0.0,0.0,84,0.00,,---,0.00,VWS V14.01,2013-04-22 06:56:00,
2013-04-21 22:58:00,17.3,13.3,30.44,SE,128,0.0,0.0,84,0.00,,---,0.00,VWS V14.01,2013-04-22 06:58:00,
2013-04-21 23:00:00,17.2,13.5,30.44,SE,128,0.0,0.0,85,0.00,,---,0.00,VWS V14.01,2013-04-22 07:00:00,
2013-04-21 23:01:00,17.0,13.3,30.44,SE,128,0.0,0.0,85,0.00,,---,0.00,VWS V14.01,2013-04-22 07:01:00,
2013-04-21 23:02:00,17.0,13.3,30.44,SE,128,0.0,0.0,85,0.00,,---,0.00,VWS V14.01,2013-04-22 07:02:00,
2013-04-21 23:03:00,16.9,13.2,30.44,SE,128,0.0,0.0,85,0.00,,---,0.00,VWS V14.01,2013-04-22 07:03:00,
2013-04-21 23:04:00,16.4,12.7,30.44,SE,128,0.0,0.0,85,0.00,,---,0.00,VWS V14.01,2013-04-22 07:04:00,
2013-04-21 23:05:00,16.3,12.3,30.44,SE,128,0.0,0.0,84,0.00,,---,0.00,VWS V14.01,2013-04-22 07:05:00,
2013-04-21 23:10:00,16.1,12.1,30.44,SE,128,0.0,0.0,84,0.00,,---,0.00,VWS V14.01,2013-04-22 07:10:00,
2013-04-21 23:11:00,15.9,11.9,30.44,SE,128,0.0,0.0,84,0.00,,---,0.00,VWS V14.01,2013-04-22 07:11:00,
2013-04-21 23:12:00,15.9,11.9,30.44,SE,128,0.0,0.0,84,0.00,,---,0.00,VWS V14.01,2013-04-22 07:12:00,
2013-04-21 23:13:00,15.8,11.8,30.44,SE,128,0.0,0.0,84,0.00,,---,0.00,VWS V14.01,2013-04-22 07:13:00,
2013-04-21 23:14:00,15.7,11.7,30.44,SE,128,0.0,0.0,84,0.00,,---,0.00,VWS V14.01,2013-04-22 07:14:00,
2013-04-21 23:15:00,15.6,11.6,30.44,SE,128,0.0,0.0,84,0.00,,---,0.00,VWS V14.01,2013-04-22 07:15:00,
2013-04-21 23:17:00,14.9,10.9,30.44,SE,128,0.0,0.0,84,0.00,,---,0.00,VWS V14.01,2013-04-22 07:17:00,
2013-04-21 23:20:00,15.0,13.1,30.44,SE,128,0.0,0.0,92,0.00,,---,0.00,VWS V14.01,2013-04-22 07:20:00,
2013-04-21 23:23:00,14.7,10.8,30.44,SE,128,0.0,0.0,84,0.00,,---,0.00,VWS V14.01,2013-04-22 07:23:00,
2013-04-21 23:25:00,14.3,10.1,30.44,SE,128,0.0,0.0,83,0.00,,---,0.00,VWS V14.01,2013-04-22 07:25:00,
2013-04-21 23:26:00,15.2,11.2,30.44,SE,128,0.0,0.0,84,0.00,,---,0.00,VWS V14.01,2013-04-22 07:26:00,
2013-04-21 23:27:00,15.2,11.2,30.44,SE,128,0.0,0.0,84,0.00,,---,0.00,VWS V14.01,2013-04-22 07:27:00,
2013-04-21 23:30:00,13.2,9.3,30.44,SE,128,0.0,0.0,84,0.00,,---,0.00,VWS V14.01,2013-04-22 07:30:00,
2013-04-21 23:35:00,12.9,9.0,30.44,SE,128,0.0,0.0,84,0.00,,---,0.00,VWS V14.01,2013-04-22 07:35:00,
2013-04-21 23:37:00,12.3,8.9,30.44,SSE,167,0.0,0.0,86,0.00,,---,0.00,VWS V14.01,2013-04-22 07:37:00,
2013-04-21 23:39:00,12.5,8.9,30.44,SSE,167,0.0,0.0,85,0.00,,---,0.00,VWS V14.01,2013-04-22 07:39:00,
2013-04-21 23:40:00,12.4,8.8,30.44,SSE,167,0.0,0.0,85,0.00,,---,0.00,VWS V14.01,2013-04-22 07:40:00,
2013-04-21 23:43:00,11.9,8.5,30.44,SSE,167,0.0,0.0,86,0.00,,---,0.00,VWS V14.01,2013-04-22 07:43:00,
2013-04-21 23:44:00,11.7,8.3,30.44,SSE,167,0.0,0.0,86,0.00,,---,0.00,VWS V14.01,2013-04-22 07:44:00,
2013-04-21 23:45:00,11.9,8.5,30.44,SSE,167,0.0,0.0,86,0.00,,---,0.00,VWS V14.01,2013-04-22 07:45:00,
2013-04-21 23:50:00,11.4,8.3,30.44,SSE,167,0.0,0.0,87,0.00,,---,0.00,VWS V14.01,2013-04-22 07:50:00,
2013-04-21 23:51:00,11.4,8.3,30.44,SSE,167,0.0,0.0,87,0.00,,---,0.00,VWS V14.01,2013-04-22 07:51:00,
2013-04-21 23:52:00,11.3,8.4,30.44,SSE,167,1.0,2.0,88,0.00,,---,0.00,VWS V14.01,2013-04-22 07:52:00,
2013-04-21 23:53:00,11.2,8.4,30.44,SSE,167,0.0,2.0,88,0.00,,---,0.00,VWS V14.01,2013-04-22 07:53:00,
2013-04-21 23:54:00,11.1,8.2,30.44,SSE,167,0.0,2.0,88,0.00,,---,0.00,VWS V14.01,2013-04-22 07:54:00,
2013-04-21 23:55:00,11.1,8.2,30.44,SSE,167,0.0,2.0,88,0.00,,---,0.00,VWS V14.01,2013-04-22 07:55:00,
2013-04-21 23:56:00,11.0,8.1,30.44,SSE,167,0.0,0.0,88,0.00,,---,0.00,VWS V14.01,2013-04-22 07:56:00,